To NAV CANADA Home Page Login to a new session Search on AWWS site Disclaimer Vers la page française équivalente Tips FAQ What's new on the site To the Forecasts and Observations / NOTAM section To "File a Flight Plan" website Publications and other links Update of the User's profile FIC Telephone Numbers My Weather Data Folder Route Weather Data Regional Weather Data Local Weather Data To the Forecasts and Observations / NOTAM section
Request Generated 03/18/2019 at 20:25:56 UTC . Weather information available at that time is displayed.

METAR/TAF

If you find any discrepancies between the coded METAR/TAF and the plain language METAR/TAF please use the coded METAR/TAF. LWIS bulletins are not decoded in plain language.

TORONTO/LESTER B. PEARSON INTL/ON    

METAR CYYZ 182000Z 31013G19KT 270V330 15SM FEW055 03/M11 A3025 RMK CU1 SLP253=
METAR
LOCATION
CYYZ - TORONTO/LESTER B. PEARSON INTL/ON
DATE - TIME
18 MARCH 2019 - 2000 UTC
WIND
310 TRUE @ 13  KNOTS
VARIATION
270 <-> 330  DEG
GUSTS
19 KNOTS
VISIBILITY
15 STAT.  MILES
RUNWAY VISUAL RANGE
WEATHER
CLOUDINESS
FEW CLOUDS (1/8 - 2/8) 5500  FT
TEMP / DEWPOINT
3 C / -11 C
ALTIMETER
30.25 IN HG
RECENT WEATHER
WIND SHEAR

SPECI CYYZ 181916Z 30011G19KT 15SM FEW040 SCT055 02/M11 A3025 RMK CF1CU2 SLP254
SPECI
LOCATION
CYYZ - TORONTO/LESTER B. PEARSON INTL/ON
DATE - TIME
18 MARCH 2019 - 1916 UTC
WIND
300 TRUE @ 11  KNOTS
GUSTS
19 KNOTS
VISIBILITY
15 STAT.  MILES
RUNWAY VISUAL RANGE
WEATHER
CLOUDINESS
FEW CLOUDS (1/8 - 2/8) 4000  FT
SCATTERED CLOUDS (3/8 - 4/8) 5500  FT
TEMP / DEWPOINT
2 C / -11 C
ALTIMETER
30.25 IN HG
RECENT WEATHER
WIND SHEAR

METAR CYYZ 181900Z 28012G21KT 15SM FEW040 SCT055 03/M10 A3025 RMK CF1CU2 SLP253
METAR
LOCATION
CYYZ - TORONTO/LESTER B. PEARSON INTL/ON
DATE - TIME
18 MARCH 2019 - 1900 UTC
WIND
280 TRUE @ 12  KNOTS
GUSTS
21 KNOTS
VISIBILITY
15 STAT.  MILES
RUNWAY VISUAL RANGE
WEATHER
CLOUDINESS
FEW CLOUDS (1/8 - 2/8) 4000  FT
SCATTERED CLOUDS (3/8 - 4/8) 5500  FT
TEMP / DEWPOINT
3 C / -10 C
ALTIMETER
30.25 IN HG
RECENT WEATHER
WIND SHEAR

METAR CYYZ 181800Z 30020G26KT 15SM SCT040 SCT065 02/M08 A3026 RMK CU3SC1 SH DIS E-S SLP256=
METAR
LOCATION
CYYZ - TORONTO/LESTER B. PEARSON INTL/ON
DATE - TIME
18 MARCH 2019 - 1800 UTC
WIND
300 TRUE @ 20  KNOTS
GUSTS
26 KNOTS
VISIBILITY
15 STAT.  MILES
RUNWAY VISUAL RANGE
WEATHER
CLOUDINESS
SCATTERED CLOUDS (3/8 - 4/8) 4000  FT
SCATTERED CLOUDS (3/8 - 4/8) 6500  FT
TEMP / DEWPOINT
2 C / -8 C
ALTIMETER
30.26 IN HG
RECENT WEATHER
WIND SHEAR

TAF CYYZ 181739Z 1818/1924 30012G22KT P6SM SCT040 BKN060 FM182300 29010KT P6SM FEW050 FM190300 28008KT P6SM BKN070 TEMPO 1904/1908 2SM -SHSN BKN020 OVC070 FM190800 28005KT P6SM FEW015 FEW040 FM191000 27005KT P6SM FEW008 FM191500 31008KT P6SM SCT030 BKN070 FM191700 29006KT 6SM -SHRASN BKN030 BKN060 BECMG 1917/1919 16006KT FM192300 15006KT P6SM FEW040 RMK NXT FCST BY 182100Z=
TAF
LOCATION

CYYZ - TORONTO/LESTER B. PEARSON INTL/ON
VALIDITY [UTC]
18 MAR - 1739 to
20 MAR - 0000
 
TIMES
[UTC]
WIND
[DEGREES TRUE]
VISIBILITY
[STAT. MILES]
WEATHER
CLOUDINESS
[FEET AGL]
 
18 MAR - 1800 to
18 MAR - 2300
300 @ 12 KNOTS
GUSTS 22 KNOTS
6+
NIL
4000 SCATTERED
6000 BROKEN
 
18 MAR - 2300 to
19 MAR - 0300
290 @ 10 KNOTS
6+
NIL
5000 FEW
 
19 MAR - 0300 to
19 MAR - 0800
280 @ 8 KNOTS
6+
NIL
7000 BROKEN
TEMPORARY CHANGES
19 MAR - 0400 to
19 MAR - 0800
 
2
LIGHT SNOW SHOWER
2000 BROKEN
7000 OVERCAST
 
19 MAR - 0800 to
19 MAR - 1000
280 @ 5 KNOTS
6+
NIL
1500 FEW
 
19 MAR - 1000 to
19 MAR - 1500
270 @ 5 KNOTS
6+
NIL
800 FEW
 
19 MAR - 1500 to
19 MAR - 1700
310 @ 8 KNOTS
6+
NIL
3000 SCATTERED
7000 BROKEN
 
19 MAR - 1700 to
19 MAR - 2300
290 @ 6 KNOTS
6
LIGHT RAIN SHOWER
LIGHT SNOW SHOWER
3000 BROKEN
6000 BROKEN
BECOMING
19 MAR - 1700 to
19 MAR - 1900
160 @ 6 KNOTS
 
 
 
 
19 MAR - 2300 to
20 MAR - 0000
150 @ 6 KNOTS
6+
NIL
4000 FEW
REMARKS
THE NEXT FORECAST WILL BE ISSUED BY 2100 UTC ON DAY 18


Your time UTC time
Weather data provided by Environment Canada and NAV CANADA